createdAt,value
2018-01-13T00:00:54.615Z,13.37
2018-01-13T00:03:22.260Z,13.20
2018-01-13T00:05:50.676Z,13.25
2018-01-13T00:08:18.322Z,14.23
2018-01-13T00:10:46.002Z,13.70
2018-01-13T00:13:13.640Z,12.65
2018-01-13T00:15:42.043Z,13.15
2018-01-13T00:18:09.644Z,12.90
2018-01-13T00:20:37.262Z,13.85
2018-01-13T00:23:05.639Z,13.30
2018-01-13T00:25:34.071Z,12.77
2018-01-13T00:28:02.524Z,13.05
2018-01-13T00:30:30.160Z,12.73
2018-01-13T00:32:57.755Z,12.63
2018-01-13T00:35:25.412Z,13.20
2018-01-13T00:37:53.807Z,12.68
2018-01-13T00:40:21.452Z,13.23
2018-01-13T00:42:49.874Z,13.32
2018-01-13T00:45:17.475Z,12.45
2018-01-13T00:47:45.147Z,13.60
2018-01-13T00:50:12.797Z,13.88
2018-01-13T00:52:40.439Z,13.27
2018-01-13T00:55:08.058Z,12.63
2018-01-13T00:57:36.463Z,13.82
2018-01-13T01:00:05.629Z,12.85
2018-01-13T01:02:33.262Z,12.73
2018-01-13T01:05:00.857Z,12.55
2018-01-13T01:07:28.498Z,12.10
2018-01-13T01:09:56.105Z,12.82
2018-01-13T01:12:23.757Z,12.57
2018-01-13T01:14:51.389Z,12.63
2018-01-13T01:17:19.100Z,13.13
2018-01-13T01:19:46.703Z,13.32
2018-01-13T01:22:14.282Z,12.80
2018-01-13T01:24:41.914Z,13.93
2018-01-13T01:27:10.288Z,12.75
2018-01-13T01:29:37.952Z,13.05
2018-01-13T01:32:05.563Z,12.88
2018-01-13T01:34:33.212Z,13.70
2018-01-13T01:37:00.846Z,13.13
2018-01-13T01:39:28.478Z,12.93
2018-01-13T01:41:56.113Z,13.52
2018-01-13T01:44:23.761Z,13.77
2018-01-13T01:46:52.143Z,13.27
2018-01-13T01:49:20.526Z,13.10
2018-01-13T01:51:48.933Z,13.85
2018-01-13T01:54:16.520Z,13.60
2018-01-13T01:56:44.175Z,13.25
2018-01-13T01:59:11.787Z,12.02
2018-01-13T02:01:39.395Z,12.73
2018-01-13T02:04:07.023Z,13.40
2018-01-13T02:06:34.673Z,13.20
2018-01-13T02:09:02.337Z,13.80
2018-01-13T02:11:30.774Z,13.82
2018-01-13T02:13:58.430Z,12.68
2018-01-13T02:16:26.800Z,14.45
2018-01-13T02:18:55.224Z,13.23
2018-01-13T02:21:22.878Z,13.62
2018-01-13T02:23:50.518Z,13.45
2018-01-13T02:26:18.953Z,14.15
2018-01-13T02:28:46.577Z,13.73
2018-01-13T02:31:15.004Z,13.77
2018-01-13T02:33:42.671Z,12.65
2018-01-13T02:36:10.350Z,14.05
2018-01-13T02:38:37.983Z,14.02
2018-01-13T02:41:05.588Z,13.40
2018-01-13T02:43:33.237Z,13.97
2018-01-13T02:46:00.877Z,13.97
2018-01-13T02:48:28.570Z,13.43
2018-01-13T02:50:56.186Z,14.25
2018-01-13T02:53:24.608Z,14.52
2018-01-13T02:55:52.353Z,13.85
2018-01-13T02:58:20.733Z,13.62
2018-01-13T03:00:49.114Z,15.07
2018-01-13T03:03:17.541Z,13.80
2018-01-13T03:05:45.219Z,14.00
2018-01-13T03:08:12.822Z,13.95
2018-01-13T03:10:40.795Z,13.88
2018-01-13T03:13:09.206Z,14.50
2018-01-13T03:15:36.863Z,14.57
2018-01-13T03:18:05.302Z,14.07
2018-01-13T03:20:33.014Z,14.27
2018-01-13T03:23:01.417Z,13.70
2018-01-13T03:25:29.082Z,14.50
2018-01-13T03:27:56.692Z,14.55
2018-01-13T03:30:24.305Z,13.10
2018-01-13T03:32:51.961Z,14.23
2018-01-13T03:35:20.368Z,14.25
2018-01-13T03:37:48.100Z,13.50
2018-01-13T03:40:16.514Z,13.30
2018-01-13T03:42:44.945Z,13.70
2018-01-13T03:45:12.571Z,14.75
2018-01-13T03:47:40.241Z,13.27
2018-01-13T03:50:07.865Z,14.63
2018-01-13T03:52:35.486Z,13.98
2018-01-13T03:55:03.134Z,14.77
2018-01-13T03:57:30.854Z,13.98
2018-01-13T03:59:59.958Z,12.15
2018-01-13T04:02:27.582Z,14.77
2018-01-13T04:04:55.216Z,14.38
2018-01-13T04:07:23.623Z,13.68
2018-01-13T04:09:51.276Z,14.27
2018-01-13T04:12:18.899Z,13.50
2018-01-13T04:14:47.324Z,14.43
2018-01-13T04:17:15.749Z,14.85
2018-01-13T04:19:43.435Z,14.27
2018-01-13T04:22:11.051Z,13.75
2018-01-13T04:24:38.825Z,13.10
2018-01-13T04:27:06.437Z,13.47
2018-01-13T04:29:34.051Z,14.00
2018-01-13T04:32:01.759Z,13.60
2018-01-13T04:34:30.186Z,12.27
2018-01-13T04:36:58.638Z,14.68
2018-01-13T04:39:26.494Z,14.57
2018-01-13T04:41:54.125Z,13.15
2018-01-13T04:44:21.766Z,13.62
2018-01-13T04:46:50.212Z,14.20
2018-01-13T04:49:17.853Z,13.50
2018-01-13T04:51:45.497Z,13.85
2018-01-13T04:54:13.928Z,13.38
2018-01-13T04:56:41.543Z,12.95
2018-01-13T04:59:09.972Z,13.88
2018-01-13T05:01:37.603Z,12.55
2018-01-13T05:04:06.012Z,13.68
2018-01-13T05:06:33.658Z,13.60
2018-01-13T05:09:01.322Z,13.40
2018-01-13T05:11:29.685Z,13.75
2018-01-13T05:13:58.079Z,13.82
2018-01-13T05:16:26.530Z,13.62
2018-01-13T05:18:54.230Z,13.95
2018-01-13T05:21:22.603Z,13.27
2018-01-13T05:23:52.005Z,14.05
2018-01-13T05:26:20.438Z,14.43
2018-01-13T05:28:48.056Z,13.37
2018-01-13T05:31:15.712Z,14.85
2018-01-13T05:33:44.117Z,13.20
2018-01-13T05:36:12.749Z,13.27
2018-01-13T05:38:40.398Z,11.98
2018-01-13T05:41:08.061Z,12.57
2018-01-13T05:43:35.688Z,12.32
2018-01-13T05:46:03.324Z,12.67
2018-01-13T05:48:30.999Z,12.20
2018-01-13T05:50:58.646Z,11.77
2018-01-13T05:53:26.306Z,12.37
2018-01-13T05:55:53.940Z,12.25
2018-01-13T05:58:22.360Z,11.85
2018-01-13T06:00:50.049Z,11.35
2018-01-13T06:03:17.670Z,11.60
2018-01-13T06:05:45.352Z,11.98
2018-01-13T06:08:12.975Z,11.80
2018-01-13T06:10:40.614Z,12.35
2018-01-13T06:13:08.227Z,12.13
2018-01-13T06:15:36.094Z,11.60
2018-01-13T06:18:04.517Z,11.75
2018-01-13T06:20:32.182Z,11.38
2018-01-13T06:22:59.802Z,10.80
2018-01-13T06:25:28.248Z,10.70
2018-01-13T06:27:55.853Z,11.70
2018-01-13T06:30:24.253Z,11.45
2018-01-13T06:32:52.677Z,11.85
2018-01-13T06:35:20.287Z,11.48
2018-01-13T06:37:48.206Z,11.40
2018-01-13T06:40:15.862Z,10.60
2018-01-13T06:42:43.508Z,10.02
2018-01-13T06:45:11.913Z,10.55
2018-01-13T06:47:39.577Z,10.52
2018-01-13T06:50:07.240Z,10.27
2018-01-13T06:52:34.909Z,10.65
2018-01-13T06:55:02.551Z,10.48
2018-01-13T06:57:30.962Z,10.38
2018-01-13T06:59:58.604Z,10.20
2018-01-13T07:02:27.022Z,9.60
2018-01-13T07:04:54.665Z,9.45
2018-01-13T07:07:23.097Z,10.15
2018-01-13T07:09:50.759Z,9.57
2018-01-13T07:12:18.458Z,10.13
2018-01-13T07:14:46.156Z,9.00
2018-01-13T07:17:13.820Z,9.37
2018-01-13T07:19:41.467Z,10.10
2018-01-13T07:22:09.106Z,9.43
2018-01-13T07:24:36.858Z,9.07
2018-01-13T07:27:04.527Z,9.32
2018-01-13T07:29:32.176Z,8.82
2018-01-13T07:31:59.826Z,9.40
2018-01-13T07:34:28.243Z,9.52
2018-01-13T07:36:56.185Z,9.07
2018-01-13T07:39:23.836Z,8.35
2018-01-13T07:41:52.233Z,9.05
2018-01-13T07:44:20.140Z,8.93
2018-01-13T07:46:47.782Z,8.80
2018-01-13T07:49:15.647Z,8.53
2018-01-13T07:51:43.328Z,8.02
2018-01-13T07:54:10.933Z,8.10
2018-01-13T07:56:38.746Z,7.80
2018-01-13T07:59:06.358Z,8.00
2018-01-13T08:01:34.005Z,7.55
2018-01-13T08:04:01.656Z,7.25
2018-01-13T08:06:29.333Z,7.93
2018-01-13T08:08:56.928Z,7.50
2018-01-13T08:11:24.544Z,7.57
2018-01-13T08:13:52.950Z,7.45
2018-01-13T08:16:20.560Z,7.30
2018-01-13T08:18:48.196Z,6.25
2018-01-13T08:21:15.808Z,6.97
2018-01-13T08:23:43.477Z,6.70
2018-01-13T08:26:11.882Z,6.65
2018-01-13T08:28:39.519Z,7.47
2018-01-13T08:31:07.950Z,7.70
2018-01-13T08:33:35.610Z,7.03
2018-01-13T08:36:03.254Z,6.68
2018-01-13T08:38:31.626Z,7.60
2018-01-13T08:41:00.037Z,7.05
2018-01-13T08:43:27.667Z,6.60
2018-01-13T08:45:56.083Z,7.12
2018-01-13T08:48:23.732Z,6.20
2018-01-13T08:50:52.160Z,6.32
2018-01-13T08:53:19.837Z,6.60
2018-01-13T08:55:47.482Z,6.43
2018-01-13T08:58:15.135Z,6.70
2018-01-13T09:00:43.403Z,6.40
2018-01-13T09:03:11.805Z,6.70
2018-01-13T09:05:39.450Z,6.82
2018-01-13T09:08:07.821Z,6.60
2018-01-13T09:10:36.542Z,7.25
2018-01-13T09:13:04.137Z,8.07
2018-01-13T09:15:31.749Z,6.60
2018-01-13T09:18:00.182Z,6.90
2018-01-13T09:20:27.835Z,6.65
2018-01-13T09:22:55.447Z,6.65
2018-01-13T09:25:23.096Z,6.45
2018-01-13T09:27:50.700Z,6.93
2018-01-13T09:30:19.133Z,6.90
2018-01-13T09:32:46.840Z,6.95
2018-01-13T09:35:14.717Z,7.00
2018-01-13T09:37:43.097Z,6.53
2018-01-13T09:40:10.739Z,6.30
2018-01-13T09:42:38.369Z,6.30
2018-01-13T09:45:06.026Z,5.87
2018-01-13T09:47:33.687Z,6.35
2018-01-13T09:50:01.336Z,6.25
2018-01-13T09:52:29.757Z,6.68
2018-01-13T09:54:57.368Z,6.05
2018-01-13T09:57:24.986Z,6.57
2018-01-13T09:59:52.711Z,6.40
2018-01-13T10:02:21.113Z,6.70
2018-01-13T10:04:49.738Z,7.03
2018-01-13T10:07:17.710Z,6.65
2018-01-13T10:09:46.096Z,6.65
2018-01-13T10:12:14.892Z,6.68
2018-01-13T10:14:42.729Z,6.57
2018-01-13T10:17:10.645Z,6.78
2018-01-13T10:19:39.125Z,6.93
2018-01-13T10:22:06.762Z,6.57
2018-01-13T10:24:34.428Z,7.15
2018-01-13T10:27:02.106Z,7.05
2018-01-13T10:29:30.090Z,6.37
2018-01-13T10:31:58.506Z,6.82
2018-01-13T10:34:26.189Z,6.20
2018-01-13T10:36:53.847Z,6.85
2018-01-13T10:39:21.439Z,6.75
2018-01-13T10:41:49.231Z,7.18
2018-01-13T10:44:16.867Z,6.47
2018-01-13T10:46:45.503Z,7.32
2018-01-13T10:49:13.133Z,6.80
2018-01-13T10:51:41.539Z,7.68
2018-01-13T10:54:09.168Z,7.32
2018-01-13T10:56:37.560Z,6.87
2018-01-13T10:59:05.987Z,6.78
2018-01-13T11:01:33.603Z,6.63
2018-01-13T11:04:02.047Z,6.60
2018-01-13T11:06:29.655Z,6.45
2018-01-13T11:08:58.112Z,6.75
2018-01-13T11:11:25.752Z,7.23
2018-01-13T11:13:53.407Z,6.57
2018-01-13T11:16:21.066Z,6.30
2018-01-13T11:18:48.678Z,6.55
2018-01-13T11:21:16.348Z,6.90
2018-01-13T11:23:44.021Z,6.75
2018-01-13T11:26:11.635Z,5.82
2018-01-13T11:28:39.265Z,6.35
2018-01-13T11:31:07.705Z,6.53
2018-01-13T11:33:35.313Z,6.18
2018-01-13T11:36:02.915Z,6.68
2018-01-13T11:38:30.570Z,6.65
2018-01-13T11:40:59.052Z,5.68
2018-01-13T11:43:27.438Z,5.93
2018-01-13T11:45:55.078Z,6.45
2018-01-13T11:48:22.689Z,6.03
2018-01-13T11:50:50.345Z,5.62
2018-01-13T11:53:18.267Z,6.45
2018-01-13T11:55:45.905Z,5.62
2018-01-13T11:58:13.507Z,6.45
2018-01-13T12:00:41.946Z,6.03
2018-01-13T12:03:09.566Z,6.50
2018-01-13T12:05:37.252Z,6.10
2018-01-13T12:08:05.650Z,5.97
2018-01-13T12:10:33.309Z,6.47
2018-01-13T12:13:01.728Z,6.63
2018-01-13T12:15:29.371Z,5.62
2018-01-13T12:17:57.044Z,6.45
2018-01-13T12:20:24.681Z,6.75
2018-01-13T12:22:53.061Z,6.65
2018-01-13T12:25:20.722Z,5.70
2018-01-13T12:27:49.148Z,7.15
2018-01-13T12:30:16.802Z,6.53
2018-01-13T12:32:45.239Z,6.82
2018-01-13T12:35:12.900Z,6.90
2018-01-13T12:37:40.531Z,6.78
2018-01-13T12:40:08.267Z,7.45
2018-01-13T12:42:36.647Z,6.82
2018-01-13T12:45:05.130Z,6.75
2018-01-13T12:47:33.574Z,6.63
2018-01-13T12:50:01.262Z,6.85
2018-01-13T12:52:28.952Z,6.57
2018-01-13T12:54:57.353Z,7.15
2018-01-13T12:57:25.758Z,6.87
2018-01-13T12:59:53.410Z,7.10
2018-01-13T13:02:21.001Z,7.25
2018-01-13T13:04:48.662Z,7.07
2018-01-13T13:07:16.458Z,7.32
2018-01-13T13:09:44.111Z,6.80
2018-01-13T13:12:11.751Z,6.72
2018-01-13T13:14:39.435Z,7.00
2018-01-13T13:17:07.181Z,7.72
2018-01-13T13:19:34.970Z,6.90
2018-01-13T13:22:02.730Z,6.65
2018-01-13T13:24:30.345Z,6.25
2018-01-13T13:26:58.057Z,6.95
2018-01-13T13:29:25.692Z,6.10
2018-01-13T13:31:54.096Z,6.32
2018-01-13T13:34:21.747Z,6.25
2018-01-13T13:36:50.186Z,6.00
2018-01-13T13:39:17.889Z,6.47
2018-01-13T13:41:45.548Z,6.00
2018-01-13T13:44:13.205Z,6.27
2018-01-13T13:46:41.057Z,5.70
2018-01-13T13:49:08.689Z,5.53
2018-01-13T13:51:37.877Z,5.82
2018-01-13T13:54:06.259Z,6.18
2018-01-13T13:56:34.636Z,5.32
2018-01-13T13:59:03.066Z,5.12
2018-01-13T14:01:30.701Z,5.68
2018-01-13T14:03:59.149Z,5.30
2018-01-13T14:06:26.813Z,5.57
2018-01-13T14:08:54.454Z,4.95
2018-01-13T14:11:22.078Z,5.22
2018-01-13T14:13:50.549Z,5.07
2018-01-13T14:16:18.150Z,5.03
2018-01-13T14:18:46.665Z,4.65
2018-01-13T14:21:14.326Z,4.53
2018-01-13T14:23:41.987Z,4.60
2018-01-13T14:26:09.618Z,5.12
2018-01-13T14:28:38.008Z,4.85
2018-01-13T14:31:06.431Z,5.00
2018-01-13T14:33:34.232Z,4.90
2018-01-13T14:36:01.861Z,5.28
2018-01-13T14:38:29.467Z,5.82
2018-01-13T14:40:57.405Z,5.00
2018-01-13T14:43:25.166Z,5.80
2018-01-13T14:45:52.823Z,5.15
2018-01-13T14:48:20.515Z,5.30
2018-01-13T14:50:48.150Z,5.62
2018-01-13T14:53:15.793Z,5.20
2018-01-13T14:55:43.456Z,5.18
2018-01-13T14:58:11.117Z,5.40
2018-01-13T15:00:39.535Z,4.85
2018-01-13T15:03:07.202Z,4.47
2018-01-13T15:05:34.804Z,4.72
2018-01-13T15:08:02.484Z,4.72
2018-01-13T15:10:30.304Z,5.10
2018-01-13T15:12:57.925Z,4.82
2018-01-13T15:15:26.467Z,5.40
2018-01-13T15:17:54.189Z,5.12
2018-01-13T15:20:22.741Z,5.30
2018-01-13T15:22:50.468Z,5.33
2018-01-13T15:25:18.239Z,5.33
2018-01-13T15:27:45.959Z,4.70
2018-01-13T15:30:13.906Z,5.73
2018-01-13T15:32:41.656Z,5.20
2018-01-13T15:35:09.303Z,5.18
2018-01-13T15:37:36.919Z,5.18
2018-01-13T15:40:04.566Z,6.00
2018-01-13T15:42:32.176Z,5.37
2018-01-13T15:45:00.770Z,5.87
2018-01-13T15:47:29.166Z,5.32
2018-01-13T15:49:57.568Z,5.40
2018-01-13T15:52:25.276Z,5.13
2018-01-13T15:54:53.072Z,5.30
2018-01-13T15:57:20.787Z,5.43
2018-01-13T15:59:48.395Z,5.23
2018-01-13T16:02:16.007Z,5.87
2018-01-13T16:04:43.697Z,5.75
2018-01-13T16:07:11.353Z,5.50
2018-01-13T16:09:39.249Z,6.10
2018-01-13T16:12:06.897Z,5.90
2018-01-13T16:14:34.605Z,6.15
2018-01-13T16:17:03.058Z,5.80
2018-01-13T16:19:30.721Z,5.75
2018-01-13T16:21:58.509Z,6.40
2018-01-13T16:24:26.132Z,6.07
2018-01-13T16:26:53.783Z,6.50
2018-01-13T16:29:21.495Z,6.47
2018-01-13T16:31:49.166Z,6.53
2018-01-13T16:34:16.860Z,6.00
2018-01-13T16:36:44.657Z,6.60
2018-01-13T16:39:13.104Z,6.20
2018-01-13T16:41:41.599Z,6.80
2018-01-13T16:44:09.258Z,6.15
2018-01-13T16:46:36.903Z,6.45
2018-01-13T16:49:04.570Z,7.25
2018-01-13T16:51:32.277Z,5.45
2018-01-13T16:54:00.715Z,6.28
2018-01-13T16:56:28.404Z,6.22
2018-01-13T16:58:56.036Z,6.35
2018-01-13T17:01:23.974Z,5.97
2018-01-13T17:03:51.770Z,7.47
2018-01-13T17:06:19.379Z,7.30
2018-01-13T17:08:47.779Z,7.55
2018-01-13T17:11:15.434Z,7.35
2018-01-13T17:13:43.135Z,7.25
2018-01-13T17:16:11.534Z,7.03
2018-01-13T17:18:39.201Z,7.78
2018-01-13T17:21:06.835Z,7.32
2018-01-13T17:23:34.533Z,7.65
2018-01-13T17:26:02.200Z,7.35
2018-01-13T17:28:29.855Z,7.67
2018-01-13T17:30:58.477Z,7.95
2018-01-13T17:33:26.203Z,8.05
2018-01-13T17:35:53.896Z,8.52
2018-01-13T17:38:21.592Z,8.15
2018-01-13T17:40:49.753Z,7.85
2018-01-13T17:43:17.980Z,8.10
2018-01-13T17:45:46.755Z,8.05
2018-01-13T17:48:14.526Z,8.13
2018-01-13T17:50:42.155Z,8.02
2018-01-13T17:53:09.817Z,7.60
2018-01-13T17:55:37.470Z,7.50
2018-01-13T17:58:05.945Z,7.40
2018-01-13T18:00:33.634Z,8.03
2018-01-13T18:03:01.264Z,7.10
2018-01-13T18:05:29.748Z,7.57
2018-01-13T18:07:57.385Z,6.72
2018-01-13T18:10:25.027Z,6.72
2018-01-13T18:12:52.747Z,6.93
2018-01-13T18:15:20.440Z,7.03
2018-01-13T18:17:48.850Z,6.15
2018-01-13T18:20:16.693Z,6.57
2018-01-13T18:22:44.377Z,5.60
2018-01-13T18:25:12.005Z,6.55
2018-01-13T18:27:39.715Z,7.03
2018-01-13T18:30:08.131Z,6.60
2018-01-13T18:32:35.888Z,6.53
2018-01-13T18:35:03.549Z,6.85
2018-01-13T18:37:31.253Z,5.95
2018-01-13T18:39:59.044Z,6.28
2018-01-13T18:42:29.742Z,6.62
2018-01-13T18:44:59.742Z,6.18
2018-01-13T18:47:28.760Z,6.85
2018-01-13T18:49:56.673Z,7.22
2018-01-13T18:52:24.624Z,6.70
2018-01-13T18:54:52.312Z,7.20
2018-01-13T18:57:20.819Z,7.68
2018-01-13T18:59:48.576Z,6.85
2018-01-13T19:02:16.938Z,7.40
2018-01-13T19:04:46.448Z,7.68
2018-01-13T19:07:14.080Z,7.68
2018-01-13T19:09:42.055Z,7.47
2018-01-13T19:12:11.587Z,7.93
2018-01-13T19:14:39.531Z,7.60
2018-01-13T19:17:09.848Z,7.30
2018-01-13T19:19:39.179Z,7.85
2018-01-13T19:22:07.003Z,7.97
2018-01-13T19:24:35.125Z,7.83
2018-01-13T19:27:04.802Z,7.68
2018-01-13T19:29:34.287Z,7.50
2018-01-13T19:32:02.658Z,8.45
2018-01-13T19:34:31.228Z,7.60
2018-01-13T19:36:59.943Z,8.07
2018-01-13T19:39:27.665Z,8.20
2018-01-13T19:41:55.346Z,8.10
2018-01-13T19:44:23.173Z,7.28
2018-01-13T19:46:51.024Z,7.55
2018-01-13T19:49:19.661Z,6.95
2018-01-13T19:51:52.082Z,7.00
2018-01-13T19:54:23.185Z,6.55
2018-01-13T19:56:50.955Z,7.03
2018-01-13T19:59:18.714Z,6.95
2018-01-13T20:01:47.244Z,6.32
2018-01-13T20:04:14.956Z,6.15
2018-01-13T20:06:45.567Z,6.47
2018-01-13T20:09:18.926Z,6.10
2018-01-13T20:11:47.514Z,6.07
2018-01-13T20:14:20.245Z,6.25
2018-01-13T20:16:48.019Z,6.40
2018-01-13T20:19:18.352Z,6.53
2018-01-13T20:21:47.274Z,5.90
2018-01-13T20:24:17.143Z,6.43
2018-01-13T20:26:46.615Z,5.50
2018-01-13T20:29:15.179Z,6.22
2018-01-13T20:31:52.800Z,6.45
2018-01-13T20:34:22.020Z,6.20
2018-01-13T20:36:51.948Z,6.60
2018-01-13T20:39:19.676Z,7.00
2018-01-13T20:41:47.357Z,6.35
2018-01-13T20:44:16.131Z,6.12
2018-01-13T20:46:44.085Z,6.03
2018-01-13T20:49:11.880Z,6.10
2018-01-13T20:51:42.531Z,5.87
2018-01-13T20:54:11.245Z,6.45
2018-01-13T20:56:51.532Z,6.32
2018-01-13T20:59:19.225Z,6.25
2018-01-13T21:01:46.929Z,6.40
2018-01-13T21:04:16.267Z,5.95
2018-01-13T21:06:43.972Z,6.37
2018-01-13T21:09:11.735Z,7.22
2018-01-13T21:11:39.390Z,6.10
2018-01-13T21:14:07.846Z,6.70
2018-01-13T21:16:35.552Z,5.90
2018-01-13T21:19:03.193Z,6.35
2018-01-13T21:21:30.914Z,6.07
2018-01-13T21:23:58.602Z,6.28
2018-01-13T21:26:26.248Z,6.65
2018-01-13T21:28:53.964Z,6.40
2018-01-13T21:31:22.404Z,5.70
2018-01-13T21:33:50.172Z,5.72
2018-01-13T21:36:17.984Z,6.57
2018-01-13T21:38:46.438Z,6.20
2018-01-13T21:41:14.104Z,6.37
2018-01-13T21:43:41.717Z,6.23
2018-01-13T21:46:10.123Z,6.53
2018-01-13T21:48:37.822Z,5.93
2018-01-13T21:51:05.463Z,6.40
2018-01-13T21:53:33.118Z,5.90
2018-01-13T21:56:00.843Z,6.60
2018-01-13T21:58:28.546Z,6.28
2018-01-13T22:00:56.266Z,6.10
2018-01-13T22:03:24.127Z,6.75
2018-01-13T22:05:51.848Z,6.43
2018-01-13T22:08:19.533Z,6.47
2018-01-13T22:10:47.231Z,6.70
2018-01-13T22:13:14.960Z,6.20
2018-01-13T22:15:43.417Z,6.30
2018-01-13T22:18:11.147Z,6.40
2018-01-13T22:20:38.812Z,6.13
2018-01-13T22:23:06.503Z,6.28
2018-01-13T22:25:34.183Z,6.45
2018-01-13T22:28:01.878Z,6.60
2018-01-13T22:30:29.691Z,6.45
2018-01-13T22:32:57.362Z,6.53
2018-01-13T22:35:25.110Z,6.00
2018-01-13T22:37:52.841Z,5.55
2018-01-13T22:40:20.596Z,6.12
2018-01-13T22:42:48.339Z,6.55
2018-01-13T22:45:16.102Z,5.90
2018-01-13T22:47:43.967Z,6.20
2018-01-13T22:50:11.698Z,5.93
2018-01-13T22:52:39.411Z,6.45
2018-01-13T22:55:07.105Z,6.05
2018-01-13T22:57:34.996Z,6.70
2018-01-13T23:00:03.770Z,6.18
2018-01-13T23:02:32.300Z,6.18
2018-01-13T23:05:00.794Z,6.10
2018-01-13T23:07:28.526Z,5.93
2018-01-13T23:09:56.976Z,5.93
2018-01-13T23:12:24.639Z,6.60
2018-01-13T23:14:52.376Z,6.60
2018-01-13T23:17:20.024Z,6.80
2018-01-13T23:19:48.450Z,6.75
2018-01-13T23:22:16.157Z,6.35
2018-01-13T23:24:43.897Z,6.72
2018-01-13T23:27:22.337Z,6.60
2018-01-13T23:29:50.034Z,6.57
2018-01-13T23:32:18.502Z,6.95
2018-01-13T23:34:46.148Z,6.67
2018-01-13T23:37:13.816Z,6.05
2018-01-13T23:39:41.456Z,6.85
2018-01-13T23:42:09.084Z,6.47
2018-01-13T23:44:37.538Z,6.87
2018-01-13T23:47:05.199Z,6.78
2018-01-13T23:49:32.832Z,7.50
2018-01-13T23:52:00.736Z,7.40
2018-01-13T23:54:28.361Z,7.03
2018-01-13T23:56:56.032Z,7.10
2018-01-13T23:59:23.652Z,6.78
